createdAt,value
2019-04-23T00:02:06.641Z,37.40
2019-04-23T00:04:38.561Z,37.20
2019-04-23T00:07:26.551Z,37.10
2019-04-23T00:09:46.787Z,37.10
2019-04-23T00:12:26.517Z,37.20
2019-04-23T00:14:57.762Z,37.10
2019-04-23T00:17:26.813Z,37.10
2019-04-23T00:19:57.146Z,37.20
2019-04-23T00:22:28.961Z,37.30
2019-04-23T00:25:25.671Z,37.20
2019-04-23T00:27:47.700Z,37.20
2019-04-23T00:30:11.519Z,37.20
2019-04-23T00:32:39.167Z,37.00
2019-04-23T00:35:12.592Z,36.80
2019-04-23T00:37:49.660Z,36.80
2019-04-23T00:40:19.026Z,36.80
2019-04-23T00:42:47.465Z,36.50
2019-04-23T00:45:27.033Z,36.30
2019-04-23T00:53:01.825Z,36.10
2019-04-23T00:55:29.971Z,36.20
2019-04-23T00:58:12.557Z,35.90
2019-04-23T01:00:44.953Z,35.60
2019-04-23T01:05:41.042Z,35.50
2019-04-23T01:15:59.599Z,34.70
2019-04-23T01:18:38.185Z,34.40
2019-04-23T01:20:54.138Z,34.30
2019-04-23T01:23:20.615Z,34.00
2019-04-23T01:26:01.957Z,34.00
2019-04-23T01:28:51.829Z,34.00
2019-04-23T01:31:20.228Z,34.00
2019-04-23T01:36:31.559Z,33.50
2019-04-23T01:39:00.206Z,33.70
2019-04-23T01:41:35.964Z,33.60
2019-04-23T01:43:58.118Z,33.50
2019-04-23T01:46:45.801Z,33.40
2019-04-23T01:49:05.952Z,33.50
2019-04-23T01:54:09.540Z,33.10
2019-04-23T01:56:40.086Z,33.10
2019-04-23T01:59:20.063Z,33.50
2019-04-23T02:01:50.263Z,33.00
2019-04-23T02:04:24.408Z,32.80
2019-04-23T02:06:55.900Z,32.60
2019-04-23T02:09:25.803Z,32.60
2019-04-23T02:12:00.983Z,32.50
2019-04-23T02:14:37.864Z,32.50
2019-04-23T02:17:07.606Z,32.70
2019-04-23T02:19:42.019Z,32.60
2019-04-23T02:22:13.263Z,32.30
2019-04-23T02:24:47.917Z,32.30
2019-04-23T02:27:22.913Z,32.30
2019-04-23T02:30:05.863Z,32.50
2019-04-23T02:32:29.042Z,32.20
2019-04-23T02:37:45.146Z,32.10
2019-04-23T02:42:49.699Z,32.40
2019-04-23T02:45:09.102Z,32.40
2019-04-23T02:47:46.821Z,32.10
2019-04-23T02:50:33.632Z,32.30
2019-04-23T02:52:51.941Z,32.20
2019-04-23T02:57:54.311Z,32.20
2019-04-23T03:00:40.155Z,32.10
2019-04-23T03:02:59.162Z,32.30
2019-04-23T03:05:24.884Z,32.10
2019-04-23T03:10:31.273Z,32.40
2019-04-23T03:13:09.809Z,32.30
2019-04-23T03:15:57.210Z,32.80
2019-04-23T03:18:43.380Z,33.00
2019-04-23T03:21:26.183Z,33.10
2019-04-23T03:24:04.312Z,33.10
2019-04-23T03:29:03.974Z,33.10
2019-04-23T03:33:11.077Z,33.10
2019-04-23T03:36:39.660Z,33.40
2019-04-23T03:39:18.483Z,33.20
2019-04-23T03:44:02.123Z,32.90
2019-04-23T03:49:09.762Z,32.90
2019-04-23T03:51:56.519Z,32.90
2019-04-23T03:57:17.030Z,32.90
2019-04-23T03:59:37.003Z,32.90
2019-04-23T04:02:12.953Z,32.80
2019-04-23T04:07:22.578Z,32.70
2019-04-23T04:09:38.692Z,32.10
2019-04-23T04:12:07.792Z,32.30
2019-04-23T04:17:15.412Z,32.10
2019-04-23T04:29:52.291Z,32.00
2019-04-23T04:32:27.389Z,32.20
2019-04-23T04:35:12.614Z,32.00
2019-04-23T04:40:08.102Z,32.10
2019-04-23T04:42:33.803Z,32.30
2019-04-23T04:45:12.321Z,31.90
2019-04-23T04:47:41.779Z,31.50
2019-04-23T04:50:06.481Z,31.60
2019-04-23T04:53:00.680Z,31.20
2019-04-23T04:55:12.107Z,31.00
2019-04-23T05:00:23.558Z,30.70
2019-04-23T05:03:01.134Z,30.60
2019-04-23T05:08:09.246Z,30.10
2019-04-23T05:10:38.705Z,30.40
2019-04-23T05:13:18.936Z,30.20
2019-04-23T05:15:23.806Z,30.00
2019-04-23T05:18:08.428Z,30.50
2019-04-23T05:20:36.624Z,29.90
2019-04-23T05:25:31.776Z,29.90
2019-04-23T05:28:12.525Z,29.60
2019-04-23T05:30:44.651Z,29.60
2019-04-23T05:43:40.400Z,29.10
2019-04-23T05:46:22.289Z,29.30
2019-04-23T05:48:45.810Z,29.20
2019-04-23T05:51:38.835Z,29.40
2019-04-23T05:56:20.576Z,29.10
2019-04-23T05:58:58.035Z,29.00
2019-04-23T06:06:54.197Z,29.00
2019-04-23T06:09:08.030Z,29.00
2019-04-23T06:11:47.020Z,29.10
2019-04-23T06:16:41.977Z,29.00
2019-04-23T06:19:18.935Z,29.20
2019-04-23T06:24:27.376Z,29.30
2019-04-23T06:26:51.630Z,29.00
2019-04-23T06:29:26.030Z,28.50
2019-04-23T06:36:58.823Z,28.60
2019-04-23T06:39:35.978Z,28.60
2019-04-23T06:42:09.646Z,28.40
2019-04-23T06:44:37.683Z,28.30
2019-04-23T06:49:48.780Z,28.20
2019-04-23T06:52:18.725Z,28.30
2019-04-23T06:54:56.171Z,28.00
2019-04-23T06:57:22.415Z,28.30
2019-04-23T06:59:55.494Z,28.10
2019-04-23T07:02:27.284Z,28.10
2019-04-23T07:07:45.239Z,28.60
2019-04-23T07:09:57.904Z,29.10
2019-04-23T07:12:38.573Z,28.30
2019-04-23T07:15:27.673Z,28.50
2019-04-23T07:17:37.657Z,28.40
2019-04-23T07:20:12.903Z,28.10
2019-04-23T07:22:42.813Z,28.40
2019-04-23T07:25:17.562Z,28.30
2019-04-23T07:27:49.337Z,27.90
2019-04-23T07:30:29.261Z,28.50
2019-04-23T07:35:24.109Z,27.80
2019-04-23T07:38:01.837Z,27.60
2019-04-23T07:40:48.233Z,27.60
2019-04-23T07:43:15.314Z,27.80
2019-04-23T07:45:45.432Z,27.70
2019-04-23T07:50:55.177Z,27.70
2019-04-23T07:53:22.891Z,27.60
2019-04-23T08:01:01.626Z,27.20
2019-04-23T08:03:52.857Z,27.30
2019-04-23T08:06:04.315Z,27.30
2019-04-23T08:08:37.804Z,27.10
2019-04-23T08:13:55.671Z,27.40
2019-04-23T08:16:33.607Z,27.40
2019-04-23T08:18:54.051Z,27.50
2019-04-23T08:24:06.492Z,26.90
2019-04-23T08:26:48.185Z,27.40
2019-04-23T08:29:15.374Z,26.70
2019-04-23T08:31:50.430Z,26.90
2019-04-23T08:34:30.959Z,26.60
2019-04-23T08:37:00.107Z,26.40
2019-04-23T08:39:26.540Z,26.50
2019-04-23T08:42:23.294Z,26.90
2019-04-23T08:44:38.720Z,26.50
2019-04-23T08:47:21.758Z,26.80
2019-04-23T08:52:18.368Z,26.50
2019-04-23T08:55:02.617Z,26.40
2019-04-23T08:57:21.238Z,26.10
2019-04-23T08:59:55.677Z,25.80
2019-04-23T09:02:58.714Z,25.90
2019-04-23T09:05:00.182Z,25.50
2019-04-23T09:07:45.070Z,25.80
2019-04-23T09:10:04.421Z,25.60
2019-04-23T09:12:37.135Z,25.80
2019-04-23T09:15:09.657Z,25.70
2019-04-23T09:17:40.475Z,25.50
2019-04-23T09:20:18.476Z,24.80
2019-04-23T09:22:38.614Z,24.70
2019-04-23T09:25:20.273Z,24.70
2019-04-23T09:27:45.229Z,24.80
2019-04-23T09:30:22.259Z,24.90
2019-04-23T09:32:51.649Z,25.00
2019-04-23T09:35:27.445Z,25.10
2019-04-23T09:38:11.710Z,25.20
2019-04-23T09:43:39.475Z,24.50
2019-04-23T09:46:23.579Z,24.30
2019-04-23T09:51:23.536Z,24.00
2019-04-23T09:53:51.219Z,24.30
2019-04-23T09:56:32.438Z,23.80
2019-04-23T09:59:07.134Z,24.00
2019-04-23T10:03:50.862Z,24.30
2019-04-23T10:06:16.799Z,23.90
2019-04-23T10:08:49.427Z,24.20
2019-04-23T10:11:15.953Z,24.40
2019-04-23T10:13:46.470Z,24.20
2019-04-23T10:16:19.851Z,24.10
2019-04-23T10:18:50.987Z,24.40
2019-04-23T10:21:23.617Z,23.90
2019-04-23T10:23:55.048Z,23.70
2019-04-23T10:26:25.972Z,24.40
2019-04-23T10:29:00.180Z,24.10
2019-04-23T10:31:31.438Z,23.90
2019-04-23T10:34:02.360Z,23.40
2019-04-23T10:36:34.578Z,23.80
2019-04-23T10:39:14.967Z,23.60
2019-04-23T10:41:42.267Z,23.40
2019-04-23T10:44:28.691Z,23.60
2019-04-23T10:47:34.063Z,23.50
2019-04-23T10:50:37.549Z,23.80
2019-04-23T10:52:51.094Z,23.90
2019-04-23T10:55:14.581Z,23.80
2019-04-23T10:57:45.852Z,24.00
2019-04-23T11:00:15.936Z,23.50
2019-04-23T11:02:47.358Z,23.60
2019-04-23T11:05:35.969Z,23.80
2019-04-23T11:07:47.463Z,23.40
2019-04-23T11:10:25.748Z,23.20
2019-04-23T11:13:19.347Z,22.80
2019-04-23T11:16:27.419Z,22.90
2019-04-23T11:18:12.366Z,23.40
2019-04-23T11:20:48.042Z,23.50
2019-04-23T11:23:22.470Z,23.40
2019-04-23T11:25:48.950Z,23.20
2019-04-23T11:31:03.422Z,23.00
2019-04-23T11:33:37.874Z,22.80
2019-04-23T11:36:33.300Z,22.80
2019-04-23T11:41:23.323Z,22.80
2019-04-23T11:46:32.530Z,22.80
2019-04-23T11:53:54.370Z,22.90
2019-04-23T11:57:04.399Z,22.90
2019-04-23T11:58:58.338Z,22.80
2019-04-23T12:04:21.542Z,22.50
2019-04-23T12:12:17.270Z,22.30
2019-04-23T12:14:46.656Z,22.60
2019-04-23T12:17:29.405Z,22.30
2019-04-23T12:22:30.133Z,22.70
2019-04-23T12:27:31.381Z,22.70
2019-04-23T12:30:13.191Z,22.90
2019-04-23T12:35:12.939Z,22.40
2019-04-23T12:40:32.459Z,23.00
2019-04-23T12:45:27.023Z,23.00
2019-04-23T12:50:44.784Z,23.00
2019-04-23T12:53:00.624Z,23.40
2019-04-23T12:58:01.322Z,23.00
2019-04-23T13:03:08.523Z,23.30
2019-04-23T13:05:32.792Z,23.50
2019-04-23T13:10:45.206Z,23.80
2019-04-23T13:13:25.660Z,23.90
2019-04-23T13:15:48.819Z,23.80
2019-04-23T13:18:23.646Z,23.50
2019-04-23T13:20:51.479Z,23.40
2019-04-23T13:25:59.588Z,23.30
2019-04-23T13:28:40.169Z,23.20
2019-04-23T13:31:20.386Z,23.40
2019-04-23T13:41:20.388Z,23.80
2019-04-23T13:44:00.379Z,24.30
2019-04-23T13:46:28.812Z,24.40
2019-04-23T13:48:52.540Z,24.80
2019-04-23T13:53:59.360Z,24.80
2019-04-23T13:56:49.273Z,25.20
2019-04-23T13:59:26.445Z,25.40
2019-04-23T14:12:09.027Z,26.60
2019-04-23T14:14:49.094Z,27.10
2019-04-23T14:17:26.915Z,27.20
2019-04-23T14:19:45.733Z,27.10
2019-04-23T14:22:48.333Z,27.00
2019-04-23T14:25:07.883Z,28.30
2019-04-23T14:30:05.197Z,27.10
2019-04-23T14:35:10.939Z,27.30
2019-04-23T14:37:45.749Z,27.60
2019-04-23T14:42:56.765Z,27.80
2019-04-23T14:48:04.041Z,28.70
2019-04-23T14:53:16.026Z,30.70
2019-04-23T14:58:36.076Z,32.00
2019-04-23T15:00:56.870Z,31.60
2019-04-23T15:03:28.770Z,31.20
2019-04-23T15:06:06.750Z,31.90
2019-04-23T15:08:32.877Z,31.80
2019-04-23T15:13:27.540Z,32.70
2019-04-23T15:16:07.702Z,33.10
2019-04-23T15:28:37.352Z,33.70
2019-04-23T15:31:33.106Z,33.70
2019-04-23T15:34:07.570Z,33.60
2019-04-23T15:44:16.206Z,34.10
2019-04-23T15:46:53.335Z,34.10
2019-04-23T15:49:19.933Z,34.10
2019-04-23T15:54:28.129Z,34.20
2019-04-23T15:56:55.172Z,34.20
2019-04-23T15:59:33.387Z,34.30
2019-04-23T16:01:41.168Z,34.40
2019-04-23T16:04:01.357Z,34.60
2019-04-23T16:06:36.377Z,35.30
2019-04-23T16:09:28.421Z,36.40
2019-04-23T16:11:58.953Z,36.50
2019-04-23T16:17:14.928Z,36.10
2019-04-23T16:19:57.837Z,38.20
2019-04-23T16:22:24.832Z,38.60
2019-04-23T16:25:00.954Z,38.40
2019-04-23T16:27:20.067Z,38.00
2019-04-23T16:32:54.022Z,38.50
2019-04-23T16:35:28.911Z,38.10
2019-04-23T16:38:01.685Z,39.20
2019-04-23T16:40:27.942Z,39.00
2019-04-23T16:42:57.600Z,39.40
2019-04-23T16:48:09.355Z,40.10
2019-04-23T16:50:35.064Z,40.90
2019-04-23T16:53:11.553Z,41.10
2019-04-23T16:55:41.826Z,41.30
2019-04-23T17:00:51.274Z,42.00
2019-04-23T17:03:19.324Z,41.80
2019-04-23T17:05:50.885Z,42.40
2019-04-23T17:11:00.396Z,42.30
2019-04-23T17:13:24.185Z,42.30
2019-04-23T17:16:00.242Z,42.40
2019-04-23T17:20:58.319Z,43.30
2019-04-23T17:26:13.661Z,43.10
2019-04-23T17:28:56.252Z,43.30
2019-04-23T17:31:27.895Z,43.60
2019-04-23T17:33:41.734Z,43.70
2019-04-23T17:39:06.792Z,43.00
2019-04-23T17:41:42.943Z,43.20
2019-04-23T17:44:18.446Z,42.90
2019-04-23T17:46:44.994Z,42.80
2019-04-23T17:49:15.400Z,42.70
2019-04-23T17:51:50.973Z,42.30
2019-04-23T17:54:31.058Z,42.10
2019-04-23T17:57:55.846Z,42.30
2019-04-23T17:59:28.115Z,42.10
2019-04-23T18:02:19.062Z,41.60
2019-04-23T18:04:33.068Z,41.30
2019-04-23T18:07:09.546Z,41.20
2019-04-23T18:09:39.661Z,40.50
2019-04-23T18:12:12.710Z,40.40
2019-04-23T18:14:40.662Z,40.40
2019-04-23T18:17:20.804Z,40.00
2019-04-23T18:19:48.715Z,40.00
2019-04-23T18:27:51.463Z,39.10
2019-04-23T18:30:52.751Z,38.70
2019-04-23T18:38:13.664Z,37.60
2019-04-23T18:40:59.318Z,37.70
2019-04-23T18:43:25.067Z,37.60
2019-04-23T18:53:48.627Z,37.00
2019-04-23T19:01:11.014Z,36.30
2019-04-23T19:06:34.398Z,35.40
2019-04-23T19:09:12.195Z,35.20
2019-04-23T19:12:26.904Z,34.90
2019-04-23T19:17:35.772Z,34.70
2019-04-23T19:19:58.304Z,34.40
2019-04-23T19:22:21.739Z,34.30
2019-04-23T19:25:01.050Z,34.00
2019-04-23T19:29:58.003Z,34.70
2019-04-23T19:32:14.209Z,33.70
2019-04-23T19:34:52.933Z,33.80
2019-04-23T19:37:36.898Z,33.00
2019-04-23T19:39:54.314Z,33.10
2019-04-23T19:42:36.405Z,33.10
2019-04-23T19:45:04.806Z,33.20
2019-04-23T19:47:45.962Z,33.10
2019-04-23T19:50:15.285Z,33.10
2019-04-23T19:53:04.329Z,32.90
2019-04-23T19:55:35.271Z,32.20
2019-04-23T20:01:33.823Z,31.30
2019-04-23T20:03:56.170Z,31.20
2019-04-23T20:06:58.694Z,31.00
2019-04-23T20:09:37.411Z,31.40
2019-04-23T20:11:49.202Z,31.20
2019-04-23T20:17:17.602Z,31.30
2019-04-23T20:19:28.003Z,31.30
2019-04-23T20:22:09.226Z,31.50
2019-04-23T20:24:44.282Z,31.40
2019-04-23T20:26:59.294Z,31.30
2019-04-23T20:29:40.708Z,31.40
2019-04-23T20:32:57.588Z,31.70
2019-04-23T20:34:49.613Z,32.00
2019-04-23T20:37:06.186Z,32.10
2019-04-23T20:44:53.494Z,32.60
2019-04-23T20:47:26.469Z,32.40
2019-04-23T20:49:48.000Z,32.60
2019-04-23T20:52:12.913Z,32.70
2019-04-23T21:00:36.800Z,32.00
2019-04-23T21:16:16.949Z,32.50
2019-04-23T21:21:01.564Z,32.90
2019-04-23T21:25:58.865Z,33.10
2019-04-23T21:28:44.447Z,33.40
2019-04-23T21:31:32.066Z,33.40
2019-04-23T21:33:56.911Z,33.60
2019-04-23T21:36:25.384Z,34.20
2019-04-23T21:44:18.409Z,34.20
2019-04-23T21:46:49.532Z,34.30
2019-04-23T21:49:31.949Z,34.60
2019-04-23T21:54:12.929Z,34.60
2019-04-23T21:56:55.332Z,34.70
2019-04-23T21:59:28.637Z,35.10
2019-04-23T22:01:55.824Z,35.20
2019-04-23T22:04:36.195Z,35.90
2019-04-23T22:07:19.392Z,35.40
2019-04-23T22:12:15.048Z,35.60
2019-04-23T22:19:58.568Z,36.30
2019-04-23T22:22:22.126Z,36.30
2019-04-23T22:24:54.082Z,36.40
2019-04-23T22:27:16.249Z,36.80
2019-04-23T22:29:49.143Z,36.80
2019-04-23T22:32:34.294Z,36.80
2019-04-23T22:35:05.840Z,36.70
2019-04-23T22:37:35.371Z,36.80
2019-04-23T22:43:07.447Z,37.20
2019-04-23T22:46:22.932Z,37.30
2019-04-23T22:49:12.793Z,37.60
2019-04-23T22:51:42.118Z,38.00
2019-04-23T22:56:37.004Z,38.40
2019-04-23T23:02:03.889Z,38.60
2019-04-23T23:04:20.340Z,38.90
2019-04-23T23:06:55.200Z,39.10
2019-04-23T23:09:25.872Z,39.20
2019-04-23T23:11:54.743Z,39.20
2019-04-23T23:14:22.429Z,39.40
2019-04-23T23:16:58.527Z,39.50
2019-04-23T23:19:34.507Z,39.50
2019-04-23T23:22:02.094Z,39.60
2019-04-23T23:24:33.721Z,39.50
2019-04-23T23:27:09.072Z,39.70
2019-04-23T23:29:42.517Z,39.80
2019-04-23T23:32:11.121Z,39.70
2019-04-23T23:34:54.211Z,39.80
2019-04-23T23:42:18.227Z,40.20
2019-04-23T23:44:58.478Z,40.00
2019-04-23T23:50:00.874Z,39.50
2019-04-23T23:52:35.161Z,39.70
2019-04-23T23:54:59.319Z,40.00
